首页
METAR-TAF:

METAR-TAF

机场 :

Whiteman Air Force Base

Knob Noster, 密蘇里州, 美国

纬度: 38-44N, 经度: 093-33W, 海拔: 265米

当前天气观测

该预报发布于16分钟前的06:56 UTC
风速3节,风向南转南东
温度 5°C
湿度 100%
气压 1018 hPa
能見度: 16.1公里
阴天层高于2300英尺

METAR: KSZL 050656Z AUTO 15003KT 10SM OVC023 05/05 A3006 RMK AO2 CIG 022 RWY19 SLP188 T00490049 $

时间: 02:12 (07:12 UTC)

预报

该预报发布于12小时和12分钟前的19:00 UTC
预报有效从04日的 19点(UTC)到 06日的 01点(UTC)
风速8节,风向
能见度10公里或以上
阴天层高于900英尺
成为
从 04日的 20点(UTC)到 04日的 22点(UTC)
风速6节,风向
能见度10公里或以上
多云层高于1200英尺
成为
从 05日的 06点(UTC)到 05日的 07点(UTC)
风速6节,风向多变
能見度: 8000
散云层高于1200英尺
轻雾
成为
从 05日的 17点(UTC)到 05日的 18点(UTC)
风速9节,风向南转南东
能見度: 0611
散云层高于1500英尺
多云层高于4000英尺

TAF: KSZL 041900Z 0419/0601 36008KT 9999 OVC009 QNH3013INS BECMG 0420/0422 35006KT 9999 BKN012 QNH3016INS BECMG 0506/0507 VRB06KT 8000 BR SCT012 QNH3010INS BECMG 0517/0518 15009KT 9999 NSW SCT015 BKN040 QNH3002INS TX07/0423Z TN03/0419Z LAST NO AMDS AFT 0422 NEXT 0611

超过4000个机场的气象观测和天气预报(METAR&TAF报告)。

可查询的气象台以黄色和红色小点在地图上表示。

将鼠标移到小点上方,可查看气象台名称。

然后点击查看天气观测和预报。

如需切换地图:点击带黑十字的绿色按钮放大地图;点击带横线的绿色按钮缩小地图;或者点击绿色箭头查看邻近地区的地图。


METAR-TAF: